This is the latest recevied weather packets stored in our database for station/object EA5BZ. If no packets are shown the sender has not sent any weather packets the latest 10 day(s).
| Time | Temp. | Humidity | Pressure | Rain* | Wind** | Luminosity | Snow |
|---|---|---|---|---|---|---|---|
| 1777655116 | 20° C | 79% | 1021.3 hPa | 0 mm | - | - | - |
| 1777652716 | 20.56° C | 78% | 1021.1 hPa | 0 mm | - | - | - |
| 1777651216 | 20° C | 79% | 1020.7 hPa | 0 mm | - | - | - |
| 1777648816 | 20.56° C | 76% | 1020.7 hPa | 0 mm | - | - | - |
| 1777647916 | 20.56° C | 77% | 1020.8 hPa | 0 mm | - | - | - |
| 1777645816 | 21.11° C | 74% | 1021 hPa | 0 mm | - | - | - |
| 1777645217 | 21.11° C | 73% | 1020.9 hPa | 0 mm | - | - | - |
| 1777644936 | 21.11° C | 73% | 1020.9 hPa | 0 mm | - | - | - |
| 1777644616 | 21.11° C | 74% | 1021 hPa | 0 mm | - | - | - |
| 1777636816 | 22.22° C | 63% | 1020.9 hPa | 0 mm | - | - | - |
| 1777635616 | 22.78° C | 64% | 1021.1 hPa | 0 mm | - | - | - |
| 1777633516 | 21.67° C | 70% | 1021.4 hPa | 0 mm | - | - | - |
| 1777632316 | 21.67° C | 70% | 1021.5 hPa | 0 mm | - | - | - |
| 1777631116 | 21.67° C | 70% | 1021.7 hPa | 0 mm | - | - | - |
| 1777629616 | 21.67° C | 72% | 1021.8 hPa | 0 mm | - | - | - |
| 1777628116 | 21.11° C | 77% | 1021.5 hPa | 0 mm | - | - | - |
| 1777627516 | 20.56° C | 79% | 1021.6 hPa | 0 mm | - | - | - |
| 1777626636 | 20° C | 81% | 1021.4 hPa | 0 mm | - | - | - |
| 1777625716 | 19.44° C | 83% | 1021.4 hPa | 0 mm | - | - | - |
| 1777625416 | 19.44° C | 83% | 1021.3 hPa | 0 mm | - | - | - |
| 1777623936 | 18.89° C | 85% | 1021.1 hPa | 0 mm | - | - | - |
| 1777620036 | 18.33° C | 87% | 1020.2 hPa | 0 mm | - | - | - |
| 1777618217 | 18.33° C | 88% | 1019.8 hPa | 0 mm | - | - | - |
| 1777616717 | 17.78° C | 88% | 1019.3 hPa | 0 mm | - | - | - |
| 1777614618 | 17.78° C | 89% | 1019 hPa | 0 mm | - | - | - |
* Rain latest hour (hover to see other rain measurements)
** Current wind speed in m/s (hover to see current wind gust speed)